sensor_id;sensor_type;location;lat;lon;timestamp;temperature;humidity
72320;SHT30;60269;52.502;16.732;2023-12-20T00:00:38;6.04;99.99
72320;SHT30;60269;52.502;16.732;2023-12-20T00:04:30;6.05;99.99
72320;SHT30;60269;52.502;16.732;2023-12-20T00:08:02;6.02;99.99
72320;SHT30;60269;52.502;16.732;2023-12-20T00:11:36;6.02;99.99
72320;SHT30;60269;52.502;16.732;2023-12-20T00:15:09;5.98;99.99
72320;SHT30;60269;52.502;16.732;2023-12-20T00:18:40;6.01;99.99
72320;SHT30;60269;52.502;16.732;2023-12-20T00:22:13;6.02;99.99
72320;SHT30;60269;52.502;16.732;2023-12-20T00:25:44;6.01;99.99
72320;SHT30;60269;52.502;16.732;2023-12-20T00:29:16;6.02;99.99
72320;SHT30;60269;52.502;16.732;2023-12-20T00:32:48;5.99;99.99
72320;SHT30;60269;52.502;16.732;2023-12-20T00:36:20;6.02;99.99
72320;SHT30;60269;52.502;16.732;2023-12-20T00:39:52;5.98;99.99
72320;SHT30;60269;52.502;16.732;2023-12-20T00:43:24;6.01;99.99
72320;SHT30;60269;52.502;16.732;2023-12-20T00:46:57;5.99;99.99
72320;SHT30;60269;52.502;16.732;2023-12-20T00:50:29;5.99;99.99
72320;SHT30;60269;52.502;16.732;2023-12-20T00:54:01;5.99;99.99
72320;SHT30;60269;52.502;16.732;2023-12-20T00:57:34;5.97;99.99
72320;SHT30;60269;52.502;16.732;2023-12-20T01:01:06;5.99;99.99
72320;SHT30;60269;52.502;16.732;2023-12-20T01:04:38;5.95;99.99
72320;SHT30;60269;52.502;16.732;2023-12-20T01:08:10;5.97;99.99
72320;SHT30;60269;52.502;16.732;2023-12-20T01:11:42;5.94;99.99
72320;SHT30;60269;52.502;16.732;2023-12-20T01:15:14;5.94;99.99
72320;SHT30;60269;52.502;16.732;2023-12-20T01:18:46;5.93;99.99
72320;SHT30;60269;52.502;16.732;2023-12-20T01:22:18;5.93;99.99
72320;SHT30;60269;52.502;16.732;2023-12-20T01:25:50;5.91;99.99
72320;SHT30;60269;52.502;16.732;2023-12-20T01:29:22;5.85;99.99
72320;SHT30;60269;52.502;16.732;2023-12-20T01:32:54;5.88;99.99
72320;SHT30;60269;52.502;16.732;2023-12-20T01:36:26;5.88;99.99
72320;SHT30;60269;52.502;16.732;2023-12-20T01:39:59;5.85;99.99
72320;SHT30;60269;52.502;16.732;2023-12-20T01:43:31;5.85;99.99
72320;SHT30;60269;52.502;16.732;2023-12-20T01:47:18;5.83;99.99
72320;SHT30;60269;52.502;16.732;2023-12-20T01:50:51;5.83;99.99
72320;SHT30;60269;52.502;16.732;2023-12-20T01:54:23;5.81;99.99
72320;SHT30;60269;52.502;16.732;2023-12-20T01:57:56;5.81;99.99
72320;SHT30;60269;52.502;16.732;2023-12-20T02:01:28;5.78;99.99
72320;SHT30;60269;52.502;16.732;2023-12-20T02:05:01;5.77;99.99
72320;SHT30;60269;52.502;16.732;2023-12-20T02:08:35;5.75;99.99
72320;SHT30;60269;52.502;16.732;2023-12-20T02:12:07;5.74;99.99
72320;SHT30;60269;52.502;16.732;2023-12-20T02:15:39;5.74;99.99
72320;SHT30;60269;52.502;16.732;2023-12-20T02:19:14;5.73;99.99
72320;SHT30;60269;52.502;16.732;2023-12-20T02:22:47;5.73;99.99
72320;SHT30;60269;52.502;16.732;2023-12-20T02:26:19;5.70;99.99
72320;SHT30;60269;52.502;16.732;2023-12-20T02:29:51;5.71;99.99
72320;SHT30;60269;52.502;16.732;2023-12-20T02:33:23;5.70;99.99
72320;SHT30;60269;52.502;16.732;2023-12-20T02:36:55;5.70;99.99
72320;SHT30;60269;52.502;16.732;2023-12-20T02:40:27;5.71;99.99
72320;SHT30;60269;52.502;16.732;2023-12-20T02:44:01;5.68;99.99
72320;SHT30;60269;52.502;16.732;2023-12-20T02:47:33;5.64;99.99
72320;SHT30;60269;52.502;16.732;2023-12-20T02:51:05;5.64;99.99
72320;SHT30;60269;52.502;16.732;2023-12-20T02:54:37;5.64;99.99
72320;SHT30;60269;52.502;16.732;2023-12-20T02:58:09;5.63;99.99
72320;SHT30;60269;52.502;16.732;2023-12-20T03:01:45;5.63;99.99
72320;SHT30;60269;52.502;16.732;2023-12-20T03:05:17;5.61;99.99
72320;SHT30;60269;52.502;16.732;2023-12-20T03:08:49;5.61;99.99
72320;SHT30;60269;52.502;16.732;2023-12-20T03:12:22;5.61;99.99
72320;SHT30;60269;52.502;16.732;2023-12-20T03:15:54;5.60;99.99
72320;SHT30;60269;52.502;16.732;2023-12-20T03:19:26;5.61;99.99
72320;SHT30;60269;52.502;16.732;2023-12-20T03:22:58;5.58;99.99
72320;SHT30;60269;52.502;16.732;2023-12-20T03:26:30;5.58;99.99
72320;SHT30;60269;52.502;16.732;2023-12-20T03:30:02;5.60;99.99
72320;SHT30;60269;52.502;16.732;2023-12-20T03:33:34;5.57;99.99
72320;SHT30;60269;52.502;16.732;2023-12-20T03:37:07;5.57;99.99
72320;SHT30;60269;52.502;16.732;2023-12-20T03:40:38;5.57;99.99
72320;SHT30;60269;52.502;16.732;2023-12-20T03:44:11;5.57;99.99
72320;SHT30;60269;52.502;16.732;2023-12-20T03:47:43;5.58;99.99
72320;SHT30;60269;52.502;16.732;2023-12-20T03:51:15;5.54;99.99
72320;SHT30;60269;52.502;16.732;2023-12-20T03:54:47;5.56;99.99
72320;SHT30;60269;52.502;16.732;2023-12-20T03:58:19;5.58;99.99
72320;SHT30;60269;52.502;16.732;2023-12-20T04:01:51;5.54;99.99
72320;SHT30;60269;52.502;16.732;2023-12-20T04:05:23;5.53;99.99
72320;SHT30;60269;52.502;16.732;2023-12-20T04:08:55;5.56;99.99
72320;SHT30;60269;52.502;16.732;2023-12-20T04:12:28;5.53;99.99
72320;SHT30;60269;52.502;16.732;2023-12-20T04:16:00;5.57;99.99
72320;SHT30;60269;52.502;16.732;2023-12-20T04:19:32;5.56;99.99
72320;SHT30;60269;52.502;16.732;2023-12-20T04:23:04;5.56;99.99
72320;SHT30;60269;52.502;16.732;2023-12-20T04:26:36;5.57;99.99
72320;SHT30;60269;52.502;16.732;2023-12-20T04:30:08;5.57;99.99
72320;SHT30;60269;52.502;16.732;2023-12-20T04:33:41;5.56;99.99
72320;SHT30;60269;52.502;16.732;2023-12-20T04:37:13;5.56;99.99
72320;SHT30;60269;52.502;16.732;2023-12-20T04:40:45;5.56;99.99
72320;SHT30;60269;52.502;16.732;2023-12-20T04:44:17;5.53;99.99
72320;SHT30;60269;52.502;16.732;2023-12-20T04:47:49;5.54;99.99
72320;SHT30;60269;52.502;16.732;2023-12-20T04:51:21;5.56;99.99
72320;SHT30;60269;52.502;16.732;2023-12-20T04:54:53;5.53;99.99
72320;SHT30;60269;52.502;16.732;2023-12-20T04:58:25;5.53;99.99
72320;SHT30;60269;52.502;16.732;2023-12-20T05:01:57;5.53;99.99
72320;SHT30;60269;52.502;16.732;2023-12-20T05:05:30;5.57;99.99
72320;SHT30;60269;52.502;16.732;2023-12-20T05:09:02;5.56;99.99
72320;SHT30;60269;52.502;16.732;2023-12-20T05:12:35;5.56;99.99
72320;SHT30;60269;52.502;16.732;2023-12-20T05:16:07;5.58;99.99
72320;SHT30;60269;52.502;16.732;2023-12-20T05:19:39;5.56;99.99
72320;SHT30;60269;52.502;16.732;2023-12-20T05:23:11;5.54;99.99
72320;SHT30;60269;52.502;16.732;2023-12-20T05:26:43;5.54;99.99
72320;SHT30;60269;52.502;16.732;2023-12-20T05:30:15;5.54;99.99
72320;SHT30;60269;52.502;16.732;2023-12-20T05:33:47;5.53;99.99
72320;SHT30;60269;52.502;16.732;2023-12-20T05:37:19;5.51;99.99
72320;SHT30;60269;52.502;16.732;2023-12-20T05:40:51;5.47;99.99
72320;SHT30;60269;52.502;16.732;2023-12-20T05:44:23;5.37;99.99
72320;SHT30;60269;52.502;16.732;2023-12-20T05:47:55;5.36;99.99
72320;SHT30;60269;52.502;16.732;2023-12-20T05:51:27;5.33;99.99
72320;SHT30;60269;52.502;16.732;2023-12-20T05:54:59;5.27;99.99
72320;SHT30;60269;52.502;16.732;2023-12-20T05:58:33;5.33;99.99
72320;SHT30;60269;52.502;16.732;2023-12-20T06:02:05;5.35;99.99
72320;SHT30;60269;52.502;16.732;2023-12-20T06:05:37;5.30;99.99
72320;SHT30;60269;52.502;16.732;2023-12-20T06:09:10;5.36;99.99
72320;SHT30;60269;52.502;16.732;2023-12-20T06:12:42;5.30;99.99
72320;SHT30;60269;52.502;16.732;2023-12-20T06:16:14;5.27;99.99
72320;SHT30;60269;52.502;16.732;2023-12-20T06:19:46;5.22;99.99
72320;SHT30;60269;52.502;16.732;2023-12-20T06:23:20;5.09;99.99
72320;SHT30;60269;52.502;16.732;2023-12-20T06:26:52;5.00;99.99
72320;SHT30;60269;52.502;16.732;2023-12-20T06:30:24;4.91;99.99
72320;SHT30;60269;52.502;16.732;2023-12-20T06:33:57;4.81;99.99
72320;SHT30;60269;52.502;16.732;2023-12-20T06:37:31;4.78;99.99
72320;SHT30;60269;52.502;16.732;2023-12-20T06:41:03;4.71;99.99
72320;SHT30;60269;52.502;16.732;2023-12-20T06:44:35;4.60;99.99
72320;SHT30;60269;52.502;16.732;2023-12-20T06:48:08;4.62;99.99
72320;SHT30;60269;52.502;16.732;2023-12-20T06:51:40;4.68;99.99
72320;SHT30;60269;52.502;16.732;2023-12-20T06:55:12;4.65;99.99
72320;SHT30;60269;52.502;16.732;2023-12-20T06:58:44;4.61;99.99
72320;SHT30;60269;52.502;16.732;2023-12-20T07:02:17;4.62;99.99
72320;SHT30;60269;52.502;16.732;2023-12-20T07:05:48;4.74;99.99
72320;SHT30;60269;52.502;16.732;2023-12-20T07:09:20;4.89;99.99
72320;SHT30;60269;52.502;16.732;2023-12-20T07:12:52;4.93;99.99
72320;SHT30;60269;52.502;16.732;2023-12-20T07:16:27;4.96;99.99
72320;SHT30;60269;52.502;16.732;2023-12-20T07:19:59;4.98;99.99
72320;SHT30;60269;52.502;16.732;2023-12-20T07:23:35;4.99;99.99
72320;SHT30;60269;52.502;16.732;2023-12-20T07:27:07;5.04;99.99
72320;SHT30;60269;52.502;16.732;2023-12-20T07:30:39;5.06;99.99
72320;SHT30;60269;52.502;16.732;2023-12-20T07:34:12;5.08;99.99
72320;SHT30;60269;52.502;16.732;2023-12-20T07:37:44;5.11;99.99
72320;SHT30;60269;52.502;16.732;2023-12-20T07:41:16;5.12;99.99
72320;SHT30;60269;52.502;16.732;2023-12-20T07:44:48;5.13;99.99
72320;SHT30;60269;52.502;16.732;2023-12-20T07:48:21;5.19;99.99
72320;SHT30;60269;52.502;16.732;2023-12-20T07:51:53;5.06;99.99
72320;SHT30;60269;52.502;16.732;2023-12-20T07:55:25;5.02;99.99
72320;SHT30;60269;52.502;16.732;2023-12-20T07:58:57;4.87;99.99
72320;SHT30;60269;52.502;16.732;2023-12-20T08:02:31;4.78;99.99
72320;SHT30;60269;52.502;16.732;2023-12-20T08:06:03;4.84;99.99
72320;SHT30;60269;52.502;16.732;2023-12-20T08:09:36;4.82;99.99
72320;SHT30;60269;52.502;16.732;2023-12-20T08:13:08;4.78;99.99
72320;SHT30;60269;52.502;16.732;2023-12-20T08:16:40;4.71;99.99
72320;SHT30;60269;52.502;16.732;2023-12-20T08:20:12;4.64;99.99
72320;SHT30;60269;52.502;16.732;2023-12-20T08:23:50;4.44;99.99
72320;SHT30;60269;52.502;16.732;2023-12-20T08:27:22;4.61;99.99
72320;SHT30;60269;52.502;16.732;2023-12-20T08:30:54;4.67;99.52
72320;SHT30;60269;52.502;16.732;2023-12-20T08:34:27;4.69;99.54
72320;SHT30;60269;52.502;16.732;2023-12-20T08:37:59;4.74;99.20
72320;SHT30;60269;52.502;16.732;2023-12-20T08:41:31;4.79;99.25
72320;SHT30;60269;52.502;16.732;2023-12-20T08:45:04;4.88;99.27
72320;SHT30;60269;52.502;16.732;2023-12-20T08:48:36;4.85;99.00
72320;SHT30;60269;52.502;16.732;2023-12-20T08:52:09;4.74;99.26
72320;SHT30;60269;52.502;16.732;2023-12-20T08:55:41;4.61;99.41
72320;SHT30;60269;52.502;16.732;2023-12-20T08:59:13;4.67;99.28
72320;SHT30;60269;52.502;16.732;2023-12-20T09:02:46;4.81;98.82
72320;SHT30;60269;52.502;16.732;2023-12-20T09:06:18;5.18;97.86
72320;SHT30;60269;52.502;16.732;2023-12-20T09:09:51;5.27;96.88
72320;SHT30;60269;52.502;16.732;2023-12-20T09:13:23;5.30;96.46
72320;SHT30;60269;52.502;16.732;2023-12-20T09:17:00;5.56;95.67
72320;SHT30;60269;52.502;16.732;2023-12-20T09:20:33;5.98;94.05
72320;SHT30;60269;52.502;16.732;2023-12-20T09:24:06;6.43;92.12
72320;SHT30;60269;52.502;16.732;2023-12-20T09:27:38;6.73;90.07
72320;SHT30;60269;52.502;16.732;2023-12-20T09:31:10;6.64;90.12
72320;SHT30;60269;52.502;16.732;2023-12-20T09:34:42;6.39;91.83
72320;SHT30;60269;52.502;16.732;2023-12-20T09:38:14;6.23;91.79
72320;SHT30;60269;52.502;16.732;2023-12-20T09:42:08;6.05;92.91
72320;SHT30;60269;52.502;16.732;2023-12-20T09:45:46;5.88;93.13
72320;SHT30;60269;52.502;16.732;2023-12-20T09:49:18;5.83;94.02
72320;SHT30;60269;52.502;16.732;2023-12-20T09:52:52;5.97;93.08
72320;SHT30;60269;52.502;16.732;2023-12-20T09:56:25;6.05;92.72
72320;SHT30;60269;52.502;16.732;2023-12-20T09:59:57;6.09;92.05
72320;SHT30;60269;52.502;16.732;2023-12-20T10:03:30;6.06;92.64
72320;SHT30;60269;52.502;16.732;2023-12-20T10:07:02;5.97;92.22
72320;SHT30;60269;52.502;16.732;2023-12-20T10:10:38;5.90;93.17
72320;SHT30;60269;52.502;16.732;2023-12-20T10:14:19;5.78;92.75
72320;SHT30;60269;52.502;16.732;2023-12-20T10:17:50;5.73;92.77
72320;SHT30;60269;52.502;16.732;2023-12-20T10:21:23;5.70;93.14
72320;SHT30;60269;52.502;16.732;2023-12-20T10:24:58;5.70;93.10
72320;SHT30;60269;52.502;16.732;2023-12-20T10:28:34;5.70;92.60
72320;SHT30;60269;52.502;16.732;2023-12-20T10:32:26;5.71;92.07
72320;SHT30;60269;52.502;16.732;2023-12-20T10:35:58;5.71;91.83
72320;SHT30;60269;52.502;16.732;2023-12-20T10:39:30;5.74;91.84
72320;SHT30;60269;52.502;16.732;2023-12-20T10:43:04;5.70;92.35
72320;SHT30;60269;52.502;16.732;2023-12-20T10:46:39;5.71;92.55
72320;SHT30;60269;52.502;16.732;2023-12-20T10:50:12;5.61;92.26
72320;SHT30;60269;52.502;16.732;2023-12-20T10:53:47;5.57;93.38
72320;SHT30;60269;52.502;16.732;2023-12-20T10:57:22;5.37;95.25
72320;SHT30;60269;52.502;16.732;2023-12-20T11:01:00;5.25;95.98
72320;SHT30;60269;52.502;16.732;2023-12-20T11:04:47;5.26;96.24
72320;SHT30;60269;52.502;16.732;2023-12-20T11:08:27;5.25;95.60
72320;SHT30;60269;52.502;16.732;2023-12-20T11:15:41;5.29;95.94
72320;SHT30;60269;52.502;16.732;2023-12-20T11:19:14;5.33;96.00
72320;SHT30;60269;52.502;16.732;2023-12-20T11:22:53;5.40;95.86
72320;SHT30;60269;52.502;16.732;2023-12-20T11:26:29;5.39;95.57
72320;SHT30;60269;52.502;16.732;2023-12-20T11:30:04;5.39;95.30
72320;SHT30;60269;52.502;16.732;2023-12-20T11:33:38;5.39;95.64
72320;SHT30;60269;52.502;16.732;2023-12-20T11:37:13;5.35;96.08
72320;SHT30;60269;52.502;16.732;2023-12-20T11:40:44;5.29;95.75
72320;SHT30;60269;52.502;16.732;2023-12-20T11:44:19;5.26;95.64
72320;SHT30;60269;52.502;16.732;2023-12-20T11:47:52;5.20;96.64
72320;SHT30;60269;52.502;16.732;2023-12-20T11:51:27;5.22;96.15
72320;SHT30;60269;52.502;16.732;2023-12-20T11:55:00;5.19;96.23
72320;SHT30;60269;52.502;16.732;2023-12-20T11:58:33;5.20;96.61
72320;SHT30;60269;52.502;16.732;2023-12-20T12:02:05;5.19;96.40
72320;SHT30;60269;52.502;16.732;2023-12-20T12:05:37;5.15;96.27
72320;SHT30;60269;52.502;16.732;2023-12-20T12:09:09;5.12;96.17
72320;SHT30;60269;52.502;16.732;2023-12-20T12:12:41;5.13;95.96
72320;SHT30;60269;52.502;16.732;2023-12-20T12:16:20;5.16;95.75
72320;SHT30;60269;52.502;16.732;2023-12-20T12:20:02;5.13;96.08
72320;SHT30;60269;52.502;16.732;2023-12-20T12:23:34;5.18;95.51
72320;SHT30;60269;52.502;16.732;2023-12-20T12:27:06;5.25;95.03
72320;SHT30;60269;52.502;16.732;2023-12-20T12:30:39;5.26;94.56
72320;SHT30;60269;52.502;16.732;2023-12-20T12:34:24;5.29;93.89
72320;SHT30;60269;52.502;16.732;2023-12-20T12:37:58;5.26;94.70
72320;SHT30;60269;52.502;16.732;2023-12-20T12:41:31;5.40;94.49
72320;SHT30;60269;52.502;16.732;2023-12-20T12:45:03;5.39;94.35
72320;SHT30;60269;52.502;16.732;2023-12-20T12:48:36;5.35;94.31
72320;SHT30;60269;52.502;16.732;2023-12-20T12:52:08;5.43;93.91
72320;SHT30;60269;52.502;16.732;2023-12-20T12:55:40;5.43;93.53
72320;SHT30;60269;52.502;16.732;2023-12-20T12:59:12;5.46;93.09
72320;SHT30;60269;52.502;16.732;2023-12-20T13:02:44;5.51;91.72
72320;SHT30;60269;52.502;16.732;2023-12-20T13:06:16;5.53;91.90
72320;SHT30;60269;52.502;16.732;2023-12-20T13:09:47;5.48;92.26
72320;SHT30;60269;52.502;16.732;2023-12-20T13:13:20;5.43;92.10
72320;SHT30;60269;52.502;16.732;2023-12-20T13:16:52;5.47;91.69
72320;SHT30;60269;52.502;16.732;2023-12-20T13:20:24;5.48;92.19
72320;SHT30;60269;52.502;16.732;2023-12-20T13:23:56;5.53;91.64
72320;SHT30;60269;52.502;16.732;2023-12-20T13:27:28;5.53;91.75
72320;SHT30;60269;52.502;16.732;2023-12-20T13:31:00;5.53;91.33
72320;SHT30;60269;52.502;16.732;2023-12-20T13:34:32;5.54;91.40
72320;SHT30;60269;52.502;16.732;2023-12-20T13:38:05;5.54;91.00
72320;SHT30;60269;52.502;16.732;2023-12-20T13:41:37;5.56;91.51
72320;SHT30;60269;52.502;16.732;2023-12-20T13:45:09;5.64;91.38
72320;SHT30;60269;52.502;16.732;2023-12-20T13:48:41;5.66;90.66
72320;SHT30;60269;52.502;16.732;2023-12-20T13:52:13;5.61;90.91
72320;SHT30;60269;52.502;16.732;2023-12-20T13:55:45;5.61;91.11
72320;SHT30;60269;52.502;16.732;2023-12-20T13:59:17;5.58;90.88
72320;SHT30;60269;52.502;16.732;2023-12-20T14:02:49;5.64;90.64
72320;SHT30;60269;52.502;16.732;2023-12-20T14:06:21;5.68;90.57
72320;SHT30;60269;52.502;16.732;2023-12-20T14:09:53;5.64;90.40
72320;SHT30;60269;52.502;16.732;2023-12-20T14:13:25;5.61;90.59
72320;SHT30;60269;52.502;16.732;2023-12-20T14:16:58;5.63;90.16
72320;SHT30;60269;52.502;16.732;2023-12-20T14:20:30;5.67;90.33
72320;SHT30;60269;52.502;16.732;2023-12-20T14:24:02;5.66;90.23
72320;SHT30;60269;52.502;16.732;2023-12-20T14:27:35;5.63;90.33
72320;SHT30;60269;52.502;16.732;2023-12-20T14:31:07;5.44;92.01
72320;SHT30;60269;52.502;16.732;2023-12-20T14:34:40;5.30;93.22
72320;SHT30;60269;52.502;16.732;2023-12-20T14:38:12;5.09;95.10
72320;SHT30;60269;52.502;16.732;2023-12-20T14:41:47;4.98;95.73
72320;SHT30;60269;52.502;16.732;2023-12-20T14:45:18;4.98;95.58
72320;SHT30;60269;52.502;16.732;2023-12-20T14:48:51;5.02;94.75
72320;SHT30;60269;52.502;16.732;2023-12-20T14:52:23;5.04;94.65
72320;SHT30;60269;52.502;16.732;2023-12-20T14:55:55;4.99;94.85
72320;SHT30;60269;52.502;16.732;2023-12-20T14:59:27;4.95;94.95
72320;SHT30;60269;52.502;16.732;2023-12-20T15:02:59;4.98;94.98
72320;SHT30;60269;52.502;16.732;2023-12-20T15:06:32;4.98;95.26
72320;SHT30;60269;52.502;16.732;2023-12-20T15:10:05;4.93;95.66
72320;SHT30;60269;52.502;16.732;2023-12-20T15:13:37;4.99;95.70
72320;SHT30;60269;52.502;16.732;2023-12-20T15:17:09;4.93;96.36
72320;SHT30;60269;52.502;16.732;2023-12-20T15:20:41;4.93;96.25
72320;SHT30;60269;52.502;16.732;2023-12-20T15:24:15;4.93;96.20
72320;SHT30;60269;52.502;16.732;2023-12-20T15:27:49;4.91;96.30
72320;SHT30;60269;52.502;16.732;2023-12-20T15:31:25;4.81;95.79
72320;SHT30;60269;52.502;16.732;2023-12-20T15:34:58;4.68;95.03
72320;SHT30;60269;52.502;16.732;2023-12-20T15:38:30;4.34;95.33
72320;SHT30;60269;52.502;16.732;2023-12-20T15:42:02;4.11;95.80
72320;SHT30;60269;52.502;16.732;2023-12-20T15:45:34;3.95;96.70
72320;SHT30;60269;52.502;16.732;2023-12-20T15:49:06;3.82;97.38
72320;SHT30;60269;52.502;16.732;2023-12-20T15:52:39;3.71;97.65
72320;SHT30;60269;52.502;16.732;2023-12-20T15:56:11;3.55;99.07
72320;SHT30;60269;52.502;16.732;2023-12-20T15:59:43;3.24;98.76
72320;SHT30;60269;52.502;16.732;2023-12-20T16:03:15;3.14;99.99
72320;SHT30;60269;52.502;16.732;2023-12-20T16:06:56;3.02;99.99
72320;SHT30;60269;52.502;16.732;2023-12-20T16:10:30;3.02;98.55
72320;SHT30;60269;52.502;16.732;2023-12-20T16:14:03;2.97;98.79
72320;SHT30;60269;52.502;16.732;2023-12-20T16:17:35;3.03;98.69
72320;SHT30;60269;52.502;16.732;2023-12-20T16:21:08;3.04;98.40
72320;SHT30;60269;52.502;16.732;2023-12-20T16:24:40;3.07;98.08
72320;SHT30;60269;52.502;16.732;2023-12-20T16:28:12;3.13;97.79
72320;SHT30;60269;52.502;16.732;2023-12-20T16:31:44;3.10;97.70
72320;SHT30;60269;52.502;16.732;2023-12-20T16:35:18;3.13;97.15
72320;SHT30;60269;52.502;16.732;2023-12-20T16:38:50;3.07;97.23
72320;SHT30;60269;52.502;16.732;2023-12-20T16:42:22;3.03;97.44
72320;SHT30;60269;52.502;16.732;2023-12-20T16:45:54;3.17;96.92
72320;SHT30;60269;52.502;16.732;2023-12-20T16:49:26;3.41;96.23
72320;SHT30;60269;52.502;16.732;2023-12-20T16:52:58;3.58;95.60
72320;SHT30;60269;52.502;16.732;2023-12-20T16:56:30;3.71;95.66
72320;SHT30;60269;52.502;16.732;2023-12-20T17:00:02;3.75;95.80
72320;SHT30;60269;52.502;16.732;2023-12-20T17:03:35;3.79;96.17
72320;SHT30;60269;52.502;16.732;2023-12-20T17:07:07;3.74;96.59
72320;SHT30;60269;52.502;16.732;2023-12-20T17:10:39;3.72;96.82
72320;SHT30;60269;52.502;16.732;2023-12-20T17:14:11;3.89;96.40
72320;SHT30;60269;52.502;16.732;2023-12-20T17:17:44;3.90;96.22
72320;SHT30;60269;52.502;16.732;2023-12-20T17:21:18;3.81;95.57
72320;SHT30;60269;52.502;16.732;2023-12-20T17:24:50;3.92;95.48
72320;SHT30;60269;52.502;16.732;2023-12-20T17:28:22;4.00;95.25
72320;SHT30;60269;52.502;16.732;2023-12-20T17:31:54;3.88;96.45
72320;SHT30;60269;52.502;16.732;2023-12-20T17:35:27;3.77;96.70
72320;SHT30;60269;52.502;16.732;2023-12-20T17:38:59;3.82;95.53
72320;SHT30;60269;52.502;16.732;2023-12-20T17:42:31;3.86;95.40
72320;SHT30;60269;52.502;16.732;2023-12-20T17:46:03;3.83;95.15
72320;SHT30;60269;52.502;16.732;2023-12-20T17:49:36;3.81;94.94
72320;SHT30;60269;52.502;16.732;2023-12-20T17:53:08;4.02;93.05
72320;SHT30;60269;52.502;16.732;2023-12-20T17:56:40;4.10;92.48
72320;SHT30;60269;52.502;16.732;2023-12-20T18:00:14;4.13;92.22
72320;SHT30;60269;52.502;16.732;2023-12-20T18:03:47;4.09;92.97
72320;SHT30;60269;52.502;16.732;2023-12-20T18:07:20;4.07;93.00
72320;SHT30;60269;52.502;16.732;2023-12-20T18:10:51;4.07;92.99
72320;SHT30;60269;52.502;16.732;2023-12-20T18:14:23;4.10;92.63
72320;SHT30;60269;52.502;16.732;2023-12-20T18:17:55;4.09;92.24
72320;SHT30;60269;52.502;16.732;2023-12-20T18:21:27;3.89;93.25
72320;SHT30;60269;52.502;16.732;2023-12-20T18:24:59;3.78;93.66
72320;SHT30;60269;52.502;16.732;2023-12-20T18:28:31;3.81;93.48
72320;SHT30;60269;52.502;16.732;2023-12-20T18:32:04;3.79;93.47
72320;SHT30;60269;52.502;16.732;2023-12-20T18:35:36;3.85;93.32
72320;SHT30;60269;52.502;16.732;2023-12-20T18:39:11;3.81;93.47
72320;SHT30;60269;52.502;16.732;2023-12-20T18:42:43;3.69;94.29
72320;SHT30;60269;52.502;16.732;2023-12-20T18:46:15;3.62;94.41
72320;SHT30;60269;52.502;16.732;2023-12-20T18:49:47;3.44;95.37
72320;SHT30;60269;52.502;16.732;2023-12-20T18:53:19;3.28;95.89
72320;SHT30;60269;52.502;16.732;2023-12-20T18:56:52;3.30;95.75
72320;SHT30;60269;52.502;16.732;2023-12-20T19:00:25;3.41;95.44
72320;SHT30;60269;52.502;16.732;2023-12-20T19:03:58;3.33;95.92
72320;SHT30;60269;52.502;16.732;2023-12-20T19:07:29;3.38;95.78
72320;SHT30;60269;52.502;16.732;2023-12-20T19:11:02;3.19;96.34
72320;SHT30;60269;52.502;16.732;2023-12-20T19:14:35;3.30;95.73
72320;SHT30;60269;52.502;16.732;2023-12-20T19:18:06;3.28;96.05
72320;SHT30;60269;52.502;16.732;2023-12-20T19:21:38;3.23;96.83
72320;SHT30;60269;52.502;16.732;2023-12-20T19:25:10;3.10;97.35
72320;SHT30;60269;52.502;16.732;2023-12-20T19:28:42;2.93;98.30
72320;SHT30;60269;52.502;16.732;2023-12-20T19:32:15;3.10;98.38
72320;SHT30;60269;52.502;16.732;2023-12-20T19:35:48;3.26;97.67
72320;SHT30;60269;52.502;16.732;2023-12-20T19:39:20;3.42;96.81
72320;SHT30;60269;52.502;16.732;2023-12-20T19:42:51;3.57;96.37
72320;SHT30;60269;52.502;16.732;2023-12-20T19:46:24;3.60;95.86
72320;SHT30;60269;52.502;16.732;2023-12-20T19:49:57;3.62;95.37
72320;SHT30;60269;52.502;16.732;2023-12-20T19:53:29;3.67;94.28
72320;SHT30;60269;52.502;16.732;2023-12-20T19:57:01;3.67;94.51
72320;SHT30;60269;52.502;16.732;2023-12-20T20:00:34;3.67;94.51
72320;SHT30;60269;52.502;16.732;2023-12-20T20:04:20;3.55;94.78
72320;SHT30;60269;52.502;16.732;2023-12-20T20:07:52;3.51;94.99
72320;SHT30;60269;52.502;16.732;2023-12-20T20:11:25;3.42;95.11
72320;SHT30;60269;52.502;16.732;2023-12-20T20:15:06;3.41;95.26
72320;SHT30;60269;52.502;16.732;2023-12-20T20:18:38;3.23;95.85
72320;SHT30;60269;52.502;16.732;2023-12-20T20:22:11;3.13;96.38
72320;SHT30;60269;52.502;16.732;2023-12-20T20:25:45;3.09;96.18
72320;SHT30;60269;52.502;16.732;2023-12-20T20:29:17;3.03;96.40
72320;SHT30;60269;52.502;16.732;2023-12-20T20:32:49;2.89;96.66
72320;SHT30;60269;52.502;16.732;2023-12-20T20:36:23;2.88;96.76
72320;SHT30;60269;52.502;16.732;2023-12-20T20:39:55;2.86;96.55
72320;SHT30;60269;52.502;16.732;2023-12-20T20:43:28;2.88;96.55
72320;SHT30;60269;52.502;16.732;2023-12-20T20:47:01;3.19;95.65
72320;SHT30;60269;52.502;16.732;2023-12-20T20:50:33;3.42;94.61
72320;SHT30;60269;52.502;16.732;2023-12-20T20:54:05;3.51;94.39
72320;SHT30;60269;52.502;16.732;2023-12-20T20:57:49;3.58;94.24
72320;SHT30;60269;52.502;16.732;2023-12-20T21:01:22;3.58;94.36
72320;SHT30;60269;52.502;16.732;2023-12-20T21:04:54;3.67;93.98
72320;SHT30;60269;52.502;16.732;2023-12-20T21:08:26;3.78;93.52
72320;SHT30;60269;52.502;16.732;2023-12-20T21:11:59;3.85;93.27
72320;SHT30;60269;52.502;16.732;2023-12-20T21:15:31;3.85;93.43
72320;SHT30;60269;52.502;16.732;2023-12-20T21:19:03;3.85;93.57
72320;SHT30;60269;52.502;16.732;2023-12-20T21:22:39;3.85;93.85
72320;SHT30;60269;52.502;16.732;2023-12-20T21:26:12;3.85;93.92
72320;SHT30;60269;52.502;16.732;2023-12-20T21:29:44;3.89;94.16
72320;SHT30;60269;52.502;16.732;2023-12-20T21:33:16;3.89;94.39
72320;SHT30;60269;52.502;16.732;2023-12-20T21:36:48;3.92;93.95
72320;SHT30;60269;52.502;16.732;2023-12-20T21:40:21;4.00;93.69
72320;SHT30;60269;52.502;16.732;2023-12-20T21:43:53;4.03;93.73
72320;SHT30;60269;52.502;16.732;2023-12-20T21:47:25;4.05;93.68
72320;SHT30;60269;52.502;16.732;2023-12-20T21:50:57;4.06;93.67
72320;SHT30;60269;52.502;16.732;2023-12-20T21:54:29;4.09;93.58
72320;SHT30;60269;52.502;16.732;2023-12-20T21:58:01;4.07;93.50
72320;SHT30;60269;52.502;16.732;2023-12-20T22:01:35;4.13;93.18
72320;SHT30;60269;52.502;16.732;2023-12-20T22:05:07;4.11;93.33
72320;SHT30;60269;52.502;16.732;2023-12-20T22:08:39;4.14;93.21
72320;SHT30;60269;52.502;16.732;2023-12-20T22:12:11;4.14;93.02
72320;SHT30;60269;52.502;16.732;2023-12-20T22:15:43;4.20;92.91
72320;SHT30;60269;52.502;16.732;2023-12-20T22:19:16;4.21;92.76
72320;SHT30;60269;52.502;16.732;2023-12-20T22:22:49;4.20;92.77
72320;SHT30;60269;52.502;16.732;2023-12-20T22:26:21;4.20;92.66